Time;durP1;ratioP1;P1;durP2;ratioP2;P2;SDS_P1;SDS_P2;PMS_P1;PMS_P2;Temp;Humidity;BMP_temperature;BMP_pressure;BME280_temperature;BME280_humidity;BME280_pressure;Samples;Min_cycle;Max_cycle;Signal;HPM_P1;HPM_P2
2022/03/29 00:00:38;;;;;;;;;;;10.10;77.10;;;;;;5098081;28;19916;-48
2022/03/29 00:03:04;;;;;;;;;;;10.00;77.70;;;;;;5097528;28;19908;-46
2022/03/29 00:05:29;;;;;;;;;;;10.10;77.70;;;;;;5096760;28;19977;-47
2022/03/29 00:07:55;;;;;;;;;;;10.10;77.70;;;;;;5096715;28;20431;-48
2022/03/29 00:10:21;;;;;;;;;;;10.00;76.00;;;;;;5096034;28;20292;-49
2022/03/29 00:12:46;;;;;;;;;;;10.00;76.80;;;;;;5097363;28;20079;-47
2022/03/29 00:15:12;;;;;;;;;;;10.00;78.70;;;;;;5096955;28;19908;-45
2022/03/29 00:17:37;;;;;;;;;;;10.00;80.50;;;;;;5096978;28;20345;-47
2022/03/29 00:20:03;;;;;;;;;;;9.90;78.50;;;;;;5096760;28;19938;-46
2022/03/29 00:22:29;;;;;;;;;;;9.90;78.20;;;;;;5096494;28;19985;-48
2022/03/29 00:24:54;;;;;;;;;;;9.90;78.60;;;;;;5096545;28;19908;-48
2022/03/29 00:27:20;;;;;;;;;;;9.80;79.30;;;;;;5097071;28;19912;-49
2022/03/29 00:29:46;;;;;;;;;;;9.80;78.40;;;;;;5096460;28;20007;-47
2022/03/29 00:32:11;;;;;;;;;;;9.80;79.00;;;;;;5096877;28;20362;-47
2022/03/29 00:34:37;;;;;;;;;;;9.80;77.90;;;;;;5096489;28;19913;-45
2022/03/29 00:37:03;;;;;;;;;;;9.70;79.30;;;;;;5096739;28;19919;-46
2022/03/29 00:39:29;;;;;;;;;;;9.70;81.10;;;;;;5095860;28;19935;-44
2022/03/29 00:41:55;;;;;;;;;;;9.70;80.40;;;;;;5095583;28;20278;-50
2022/03/29 00:44:24;;;;;;;;;;;9.70;82.20;;;;;;5096347;28;19908;-50
2022/03/29 00:46:49;;;;;;;;;;;9.70;81.40;;;;;;5096450;28;19908;-50
2022/03/29 00:49:15;;;;;;;;;;;9.60;79.90;;;;;;5096119;28;19908;-46
2022/03/29 00:51:40;;;;;;;;;;;9.60;83.20;;;;;;5096396;28;19915;-44
2022/03/29 00:54:06;;;;;;;;;;;9.60;81.80;;;;;;5096078;28;20281;-45
2022/03/29 00:56:32;;;;;;;;;;;9.60;81.50;;;;;;5096223;28;20354;-45
2022/03/29 00:58:57;;;;;;;;;;;9.60;82.10;;;;;;5096113;28;19912;-46
2022/03/29 01:01:24;;;;;;;;;;;9.60;82.90;;;;;;5095779;28;20335;-47
2022/03/29 01:03:49;;;;;;;;;;;9.50;81.90;;;;;;5094909;28;19909;-45
2022/03/29 01:06:16;;;;;;;;;;;9.50;85.00;;;;;;5095722;28;20255;-49
2022/03/29 01:08:41;;;;;;;;;;;9.50;82.30;;;;;;5096328;28;19908;-45
2022/03/29 01:11:07;;;;;;;;;;;9.40;81.10;;;;;;5095567;28;19919;-47
2022/03/29 01:13:33;;;;;;;;;;;9.40;83.60;;;;;;5095661;28;19908;-46
2022/03/29 01:17:38;;;;;;;;;;;9.40;83.00;;;;;;5095886;28;19909;-46
2022/03/29 01:18:47;;;;;;;;;;;9.40;82.10;;;;;;5095399;28;19912;-46
2022/03/29 01:21:15;;;;;;;;;;;9.30;82.20;;;;;;5095743;28;19912;-45
2022/03/29 01:23:40;;;;;;;;;;;9.40;82.90;;;;;;5095695;28;20365;-45
2022/03/29 01:26:06;;;;;;;;;;;9.30;85.90;;;;;;5094350;28;20003;-48
2022/03/29 01:28:31;;;;;;;;;;;9.40;84.30;;;;;;5094179;28;20301;-49
2022/03/29 01:30:57;;;;;;;;;;;9.40;84.30;;;;;;5095132;28;20333;-47
2022/03/29 01:33:22;;;;;;;;;;;9.40;84.30;;;;;;5095283;28;20355;-47
2022/03/29 01:35:48;;;;;;;;;;;9.40;84.50;;;;;;5095251;28;19914;-47
2022/03/29 01:38:13;;;;;;;;;;;9.30;84.90;;;;;;5095144;28;20345;-47
2022/03/29 01:40:39;;;;;;;;;;;9.30;85.30;;;;;;5095028;28;19955;-46
2022/03/29 01:43:04;;;;;;;;;;;9.30;85.90;;;;;;5094928;28;20045;-45
2022/03/29 01:45:31;;;;;;;;;;;9.20;83.10;;;;;;5095007;28;19908;-46
2022/03/29 01:47:56;;;;;;;;;;;9.30;83.80;;;;;;5093875;28;19908;-45
2022/03/29 01:50:22;;;;;;;;;;;9.20;84.90;;;;;;5095169;28;19915;-48
2022/03/29 01:52:48;;;;;;;;;;;9.30;88.70;;;;;;5094616;28;19908;-48
2022/03/29 01:55:16;;;;;;;;;;;9.20;84.60;;;;;;5094802;28;19930;-47
2022/03/29 01:57:42;;;;;;;;;;;9.20;87.80;;;;;;5094589;28;20302;-46
2022/03/29 02:02:52;;;;;;;;;;;9.10;84.60;;;;;;5094947;28;19915;-50
2022/03/29 02:05:21;;;;;;;;;;;9.10;86.20;;;;;;5094892;28;19908;-48
2022/03/29 02:07:47;;;;;;;;;;;9.10;85.50;;;;;;5095209;28;19912;-46
2022/03/29 02:10:16;;;;;;;;;;;9.00;86.20;;;;;;5094583;28;19914;-46
2022/03/29 02:12:42;;;;;;;;;;;9.00;87.00;;;;;;5094553;28;20252;-50
2022/03/29 02:15:08;;;;;;;;;;;9.00;87.20;;;;;;5094464;28;19944;-49
2022/03/29 02:17:33;;;;;;;;;;;9.00;87.40;;;;;;5094298;28;20359;-48
2022/03/29 02:19:58;;;;;;;;;;;9.00;87.10;;;;;;5094416;28;19913;-45
2022/03/29 02:22:24;;;;;;;;;;;9.00;86.70;;;;;;5094726;28;20007;-49
2022/03/29 02:24:50;;;;;;;;;;;9.00;87.40;;;;;;5094680;28;19929;-46
2022/03/29 02:27:15;;;;;;;;;;;9.00;89.00;;;;;;5094633;28;19908;-45
2022/03/29 02:29:40;;;;;;;;;;;9.00;87.70;;;;;;5094249;28;20282;-46
2022/03/29 02:32:06;;;;;;;;;;;9.00;87.50;;;;;;5094690;28;20007;-50
2022/03/29 02:34:32;;;;;;;;;;;9.00;87.80;;;;;;5094423;28;20054;-49
2022/03/29 02:36:58;;;;;;;;;;;9.00;88.70;;;;;;5094094;28;19935;-46
2022/03/29 02:39:23;;;;;;;;;;;9.00;90.40;;;;;;5094417;28;19912;-47
2022/03/29 02:41:49;;;;;;;;;;;8.90;88.00;;;;;;5094357;28;20362;-47
2022/03/29 02:44:14;;;;;;;;;;;8.90;87.90;;;;;;5093994;28;19961;-45
2022/03/29 02:46:40;;;;;;;;;;;8.90;87.40;;;;;;5094282;28;19909;-48
2022/03/29 02:49:06;;;;;;;;;;;8.90;87.40;;;;;;5094349;28;19908;-47
2022/03/29 02:51:31;;;;;;;;;;;8.90;90.20;;;;;;5094102;28;19931;-48
2022/03/29 02:53:57;;;;;;;;;;;8.80;90.10;;;;;;5093802;28;19916;-46
2022/03/29 02:56:22;;;;;;;;;;;8.80;86.80;;;;;;5094070;28;19908;-49
2022/03/29 02:58:48;;;;;;;;;;;8.80;88.00;;;;;;5094117;28;19912;-46
2022/03/29 03:01:14;;;;;;;;;;;8.80;87.90;;;;;;5094196;28;19999;-48
2022/03/29 03:03:39;;;;;;;;;;;8.80;88.50;;;;;;5093127;28;19909;-46
2022/03/29 03:06:05;;;;;;;;;;;8.80;87.90;;;;;;5093609;28;19908;-47
2022/03/29 03:08:30;;;;;;;;;;;8.80;87.40;;;;;;5093649;28;19995;-46
2022/03/29 03:10:56;;;;;;;;;;;8.90;89.70;;;;;;5093856;28;20267;-47
2022/03/29 03:13:22;;;;;;;;;;;8.90;90.00;;;;;;5094106;28;19915;-49
2022/03/29 03:15:47;;;;;;;;;;;8.80;88.40;;;;;;5093644;28;19951;-50
2022/03/29 03:18:13;;;;;;;;;;;8.80;90.30;;;;;;5092642;28;20267;-47
2022/03/29 03:20:39;;;;;;;;;;;8.80;91.50;;;;;;5093737;28;19965;-44
2022/03/29 03:23:04;;;;;;;;;;;8.80;89.00;;;;;;5093355;28;19945;-48
2022/03/29 03:25:30;;;;;;;;;;;8.80;88.60;;;;;;5093495;28;19908;-45
2022/03/29 03:27:55;;;;;;;;;;;8.70;88.90;;;;;;5094038;28;19976;-47
2022/03/29 03:30:21;;;;;;;;;;;8.70;88.90;;;;;;5093206;28;20370;-52
2022/03/29 03:32:46;;;;;;;;;;;8.80;90.10;;;;;;5093498;28;19912;-45
2022/03/29 03:35:12;;;;;;;;;;;8.80;90.00;;;;;;5093264;28;19908;-48
2022/03/29 03:37:38;;;;;;;;;;;8.70;90.10;;;;;;5093305;28;20357;-47
2022/03/29 03:40:05;;;;;;;;;;;8.70;90.40;;;;;;5093664;28;19948;-49
2022/03/29 03:42:31;;;;;;;;;;;8.80;91.00;;;;;;5092146;28;20007;-46
2022/03/29 03:44:58;;;;;;;;;;;8.80;91.80;;;;;;5093230;28;19943;-46
2022/03/29 03:47:24;;;;;;;;;;;8.80;91.80;;;;;;5093177;28;19940;-46
2022/03/29 03:49:50;;;;;;;;;;;8.70;91.40;;;;;;5093135;28;19953;-46
2022/03/29 03:52:16;;;;;;;;;;;8.70;90.50;;;;;;5093091;28;20376;-45
2022/03/29 03:54:41;;;;;;;;;;;8.70;91.00;;;;;;5092983;28;20351;-47
2022/03/29 03:57:07;;;;;;;;;;;8.70;92.10;;;;;;5093447;28;20057;-48
2022/03/29 03:59:33;;;;;;;;;;;8.80;92.00;;;;;;5092104;28;20274;-48
2022/03/29 04:01:58;;;;;;;;;;;8.80;90.80;;;;;;5093094;28;20332;-48
2022/03/29 04:04:24;;;;;;;;;;;8.80;91.60;;;;;;5093376;28;19913;-45
2022/03/29 04:06:51;;;;;;;;;;;8.70;90.50;;;;;;5093413;28;20308;-46
2022/03/29 04:09:17;;;;;;;;;;;8.70;91.50;;;;;;5093295;28;19997;-46
2022/03/29 04:11:43;;;;;;;;;;;8.80;90.50;;;;;;5093012;28;19973;-45
2022/03/29 04:14:08;;;;;;;;;;;8.70;91.50;;;;;;5093221;28;20308;-47
2022/03/29 04:16:34;;;;;;;;;;;8.70;90.20;;;;;;5096828;28;20431;-45
2022/03/29 04:18:59;;;;;;;;;;;8.80;91.40;;;;;;5096441;28;19916;-47
2022/03/29 04:21:25;;;;;;;;;;;8.80;91.20;;;;;;5096683;28;20347;-49
2022/03/29 04:23:50;;;;;;;;;;;8.80;91.40;;;;;;5096706;28;19908;-46
2022/03/29 04:26:16;;;;;;;;;;;8.70;91.20;;;;;;5096539;28;19908;-48
2022/03/29 04:28:41;;;;;;;;;;;8.70;90.60;;;;;;5095256;28;19912;-49
2022/03/29 04:31:10;;;;;;;;;;;8.70;90.80;;;;;;5096343;28;20002;-51
2022/03/29 04:33:35;;;;;;;;;;;8.60;90.20;;;;;;5096368;28;19912;-48
2022/03/29 04:36:01;;;;;;;;;;;8.70;91.40;;;;;;5095174;28;20259;-46
2022/03/29 04:38:27;;;;;;;;;;;8.70;92.10;;;;;;5095065;28;19916;-46
2022/03/29 04:40:53;;;;;;;;;;;8.70;91.80;;;;;;5096251;28;19912;-49
2022/03/29 04:43:19;;;;;;;;;;;8.70;92.20;;;;;;5095839;28;19914;-48
2022/03/29 04:45:44;;;;;;;;;;;8.70;90.20;;;;;;5096180;28;20266;-48
2022/03/29 04:48:11;;;;;;;;;;;8.70;92.50;;;;;;5095759;28;19912;-45
2022/03/29 04:50:37;;;;;;;;;;;8.70;90.90;;;;;;5096439;28;19912;-48
2022/03/29 04:53:03;;;;;;;;;;;8.80;92.90;;;;;;5096087;28;19930;-47
2022/03/29 04:55:28;;;;;;;;;;;8.70;92.10;;;;;;5095997;28;19944;-47
2022/03/29 04:57:54;;;;;;;;;;;8.80;92.20;;;;;;5095534;28;20065;-46
2022/03/29 05:00:21;;;;;;;;;;;8.70;91.00;;;;;;5095927;28;19912;-48
2022/03/29 05:02:47;;;;;;;;;;;8.70;92.60;;;;;;5095805;28;19915;-46
2022/03/29 05:05:13;;;;;;;;;;;8.80;93.10;;;;;;5095817;28;20011;-47
2022/03/29 05:07:39;;;;;;;;;;;8.80;92.70;;;;;;5094395;28;19965;-48
2022/03/29 05:10:05;;;;;;;;;;;8.80;92.60;;;;;;5095452;28;19912;-48
2022/03/29 05:12:37;;;;;;;;;;;8.80;93.60;;;;;;5095447;28;19908;-48
2022/03/29 05:15:03;;;;;;;;;;;8.80;92.60;;;;;;5095491;28;20060;-50
2022/03/29 05:17:31;;;;;;;;;;;8.80;93.50;;;;;;5095385;28;19981;-45
2022/03/29 05:19:56;;;;;;;;;;;8.80;93.40;;;;;;5095358;28;19923;-50
2022/03/29 05:22:22;;;;;;;;;;;8.80;93.20;;;;;;5095551;28;20005;-51
2022/03/29 05:24:47;;;;;;;;;;;8.90;93.90;;;;;;5095403;28;19915;-48
2022/03/29 05:27:13;;;;;;;;;;;9.00;95.10;;;;;;5093857;28;19977;-46
2022/03/29 05:29:38;;;;;;;;;;;9.00;93.90;;;;;;5089566;28;19916;-50
2022/03/29 05:32:04;;;;;;;;;;;9.00;92.40;;;;;;5106639;28;20380;-45
2022/03/29 05:34:30;;;;;;;;;;;9.00;93.30;;;;;;5097955;28;19918;-47
2022/03/29 05:36:56;;;;;;;;;;;9.10;93.90;;;;;;5110004;28;20299;-49
2022/03/29 05:39:21;;;;;;;;;;;9.10;93.60;;;;;;5107943;28;19969;-46
2022/03/29 05:41:48;;;;;;;;;;;9.20;95.40;;;;;;5102026;28;20434;-47
2022/03/29 05:44:14;;;;;;;;;;;9.20;94.30;;;;;;5086843;28;19911;-50
2022/03/29 05:49:26;;;;;;;;;;;9.40;92.30;;;;;;5101422;28;20030;-47
2022/03/29 05:51:52;;;;;;;;;;;9.40;93.50;;;;;;5105447;28;19908;-47
2022/03/29 05:54:17;;;;;;;;;;;9.40;93.10;;;;;;5114475;28;19912;-51
2022/03/29 05:56:43;;;;;;;;;;;9.40;92.10;;;;;;5095698;28;19934;-46
2022/03/29 05:59:08;;;;;;;;;;;9.40;91.10;;;;;;5105084;28;19928;-47
2022/03/29 06:01:34;;;;;;;;;;;9.40;92.10;;;;;;5093994;28;19912;-48
2022/03/29 06:04:01;;;;;;;;;;;9.50;92.20;;;;;;5103771;28;19907;-47
2022/03/29 06:06:27;;;;;;;;;;;9.60;91.10;;;;;;5099060;27;19912;-46
2022/03/29 06:08:52;;;;;;;;;;;9.60;91.10;;;;;;5107838;28;19915;-50
2022/03/29 06:11:18;;;;;;;;;;;9.60;91.10;;;;;;5113866;28;19912;-47
2022/03/29 06:13:43;;;;;;;;;;;9.70;92.60;;;;;;5093864;28;20377;-49
2022/03/29 06:16:09;;;;;;;;;;;9.80;92.00;;;;;;5094070;28;19947;-49
2022/03/29 06:18:35;;;;;;;;;;;9.80;91.10;;;;;;5093786;28;20277;-45
2022/03/29 06:21:00;;;;;;;;;;;9.80;90.50;;;;;;5090685;28;19916;-50
2022/03/29 06:23:26;;;;;;;;;;;9.80;92.40;;;;;;5095299;28;19912;-47
2022/03/29 06:25:54;;;;;;;;;;;9.90;91.30;;;;;;5093558;28;19908;-45
2022/03/29 06:28:19;;;;;;;;;;;9.90;91.10;;;;;;5093149;28;19999;-48
2022/03/29 06:30:45;;;;;;;;;;;10.10;92.70;;;;;;5093602;28;19920;-52
2022/03/29 06:33:10;;;;;;;;;;;10.20;91.20;;;;;;5093334;28;19916;-50
2022/03/29 06:35:38;;;;;;;;;;;10.40;93.20;;;;;;5092189;28;19913;-50
2022/03/29 06:38:04;;;;;;;;;;;10.60;92.30;;;;;;5095144;28;20236;-49
2022/03/29 06:40:30;;;;;;;;;;;10.80;92.60;;;;;;5088544;28;19917;-47
2022/03/29 06:42:57;;;;;;;;;;;11.00;91.20;;;;;;5095786;28;19962;-49
2022/03/29 06:45:23;;;;;;;;;;;11.10;92.00;;;;;;5074337;28;20343;-45
2022/03/29 06:47:49;;;;;;;;;;;11.20;92.00;;;;;;5087787;28;20140;-44
2022/03/29 06:50:14;;;;;;;;;;;11.30;91.70;;;;;;5108105;28;19956;-42
2022/03/29 06:52:41;;;;;;;;;;;11.10;90.80;;;;;;5111811;28;19938;-42
2022/03/29 06:55:07;;;;;;;;;;;11.20;90.10;;;;;;5092784;28;19977;-44
2022/03/29 06:57:33;;;;;;;;;;;11.10;89.90;;;;;;5091979;28;19915;-46
2022/03/29 06:59:59;;;;;;;;;;;11.20;91.50;;;;;;5091959;28;20355;-42
2022/03/29 07:02:24;;;;;;;;;;;11.10;89.40;;;;;;5089520;28;20384;-50
2022/03/29 07:04:50;;;;;;;;;;;11.30;90.50;;;;;;5085404;28;20385;-47
2022/03/29 07:07:16;;;;;;;;;;;11.30;88.90;;;;;;5076614;28;20274;-46
2022/03/29 07:12:26;;;;;;;;;;;11.60;90.40;;;;;;5084123;28;19967;-41
2022/03/29 07:14:51;;;;;;;;;;;11.70;90.10;;;;;;5083871;28;19937;-48
2022/03/29 07:17:17;;;;;;;;;;;11.90;90.20;;;;;;5112320;28;19916;-49
2022/03/29 07:19:43;;;;;;;;;;;12.00;86.20;;;;;;5107803;28;19931;-53
2022/03/29 07:22:08;;;;;;;;;;;12.10;88.70;;;;;;5089323;28;20007;-46
2022/03/29 07:24:34;;;;;;;;;;;12.30;85.20;;;;;;5106223;28;20007;-46
2022/03/29 07:27:00;;;;;;;;;;;12.60;86.10;;;;;;5074394;28;19912;-47
2022/03/29 07:29:26;;;;;;;;;;;12.60;86.50;;;;;;5072787;28;19909;-47
2022/03/29 07:31:51;;;;;;;;;;;12.90;85.50;;;;;;5110689;27;19921;-52
2022/03/29 07:34:17;;;;;;;;;;;13.00;82.20;;;;;;5092689;28;20452;-48
2022/03/29 07:36:42;;;;;;;;;;;13.20;85.30;;;;;;5076254;28;20355;-51
2022/03/29 07:39:08;;;;;;;;;;;13.40;85.60;;;;;;5091937;28;19923;-52
2022/03/29 07:41:34;;;;;;;;;;;13.60;82.00;;;;;;5096623;28;19932;-46
2022/03/29 07:44:00;;;;;;;;;;;13.70;82.30;;;;;;5101528;28;19912;-45
2022/03/29 07:46:25;;;;;;;;;;;13.80;80.50;;;;;;5095028;28;20007;-49
2022/03/29 07:48:51;;;;;;;;;;;13.70;83.80;;;;;;5108136;28;19961;-45
2022/03/29 07:51:17;;;;;;;;;;;13.80;85.50;;;;;;5112449;28;19999;-47
2022/03/29 07:53:43;;;;;;;;;;;13.90;84.50;;;;;;5116743;28;19953;-48
2022/03/29 07:56:08;;;;;;;;;;;14.10;80.00;;;;;;5117366;28;19940;-45
2022/03/29 07:58:34;;;;;;;;;;;14.10;79.00;;;;;;5116889;28;19974;-48
2022/03/29 08:01:00;;;;;;;;;;;14.30;84.40;;;;;;5115322;28;19916;-45
2022/03/29 08:03:32;;;;;;;;;;;14.30;79.80;;;;;;5103622;28;19908;-50
2022/03/29 08:05:57;;;;;;;;;;;14.50;82.60;;;;;;5095291;28;20333;-52
2022/03/29 08:08:23;;;;;;;;;;;14.60;79.00;;;;;;5108990;28;19943;-47
2022/03/29 08:10:49;;;;;;;;;;;14.70;81.60;;;;;;5116864;28;19908;-46
2022/03/29 08:13:15;;;;;;;;;;;14.70;77.90;;;;;;5116928;28;20350;-52
2022/03/29 08:15:43;;;;;;;;;;;14.70;78.10;;;;;;5116417;28;20446;-50
2022/03/29 08:18:08;;;;;;;;;;;14.90;76.20;;;;;;5103419;28;20016;-49
2022/03/29 08:20:34;;;;;;;;;;;15.00;82.90;;;;;;5109285;28;20358;-51
2022/03/29 08:23:00;;;;;;;;;;;15.20;81.50;;;;;;5116508;28;20360;-44
2022/03/29 08:25:27;;;;;;;;;;;15.40;82.30;;;;;;5106786;28;19913;-47
2022/03/29 08:27:55;;;;;;;;;;;15.40;77.90;;;;;;5085232;28;20334;-49
2022/03/29 08:30:21;;;;;;;;;;;15.50;79.50;;;;;;5077775;28;19979;-50
2022/03/29 08:32:46;;;;;;;;;;;15.60;74.40;;;;;;5094290;28;19916;-48
2022/03/29 08:35:15;;;;;;;;;;;15.70;75.50;;;;;;5076279;28;19913;-53
2022/03/29 08:37:40;;;;;;;;;;;15.70;78.70;;;;;;5078258;28;19916;-50
2022/03/29 08:40:09;;;;;;;;;;;15.70;73.80;;;;;;5078168;28;19917;-50
2022/03/29 08:42:35;;;;;;;;;;;15.60;73.60;;;;;;5076660;28;19931;-48
2022/03/29 08:45:05;;;;;;;;;;;15.50;75.30;;;;;;5086565;28;20267;-49
2022/03/29 08:47:31;;;;;;;;;;;15.60;73.90;;;;;;5107015;28;19908;-47
2022/03/29 08:49:56;;;;;;;;;;;15.70;73.20;;;;;;5115695;28;19914;-45
2022/03/29 08:52:22;;;;;;;;;;;16.00;73.90;;;;;;5097013;28;19908;-53
2022/03/29 08:54:49;;;;;;;;;;;16.10;74.60;;;;;;5092952;28;19908;-51
2022/03/29 08:57:14;;;;;;;;;;;16.10;75.20;;;;;;5115312;28;19911;-44
2022/03/29 08:59:41;;;;;;;;;;;16.20;75.70;;;;;;5106474;28;19908;-45
2022/03/29 09:02:08;;;;;;;;;;;16.50;74.00;;;;;;5102130;28;19994;-46
2022/03/29 09:04:33;;;;;;;;;;;16.90;76.60;;;;;;5088409;28;19948;-47
2022/03/29 09:07:00;;;;;;;;;;;17.20;74.30;;;;;;5083683;28;20374;-47
2022/03/29 09:09:26;;;;;;;;;;;17.30;74.10;;;;;;5097371;28;19915;-52
2022/03/29 09:11:53;;;;;;;;;;;17.60;71.30;;;;;;5107759;28;20010;-49
2022/03/29 09:14:19;;;;;;;;;;;17.90;73.40;;;;;;5090619;28;19916;-46
2022/03/29 09:16:45;;;;;;;;;;;17.90;71.50;;;;;;5097203;28;19954;-47
2022/03/29 09:19:11;;;;;;;;;;;18.00;72.50;;;;;;5110012;28;20297;-47
2022/03/29 09:21:41;;;;;;;;;;;17.80;73.10;;;;;;5115026;28;19911;-48
2022/03/29 09:24:07;;;;;;;;;;;17.80;70.90;;;;;;5098239;28;19920;-49
2022/03/29 09:26:33;;;;;;;;;;;17.70;67.60;;;;;;5100201;28;19912;-50
2022/03/29 09:28:59;;;;;;;;;;;17.50;67.20;;;;;;5110515;28;20011;-54
2022/03/29 09:31:28;;;;;;;;;;;17.20;66.70;;;;;;5106473;28;19924;-52
2022/03/29 09:34:28;;;;;;;;;;;17.00;69.00;;;;;;5095144;28;19927;-53
2022/03/29 09:36:54;;;;;;;;;;;16.80;68.40;;;;;;5070986;28;19912;-49
2022/03/29 09:39:28;;;;;;;;;;;16.80;67.90;;;;;;5082841;28;19929;-47
2022/03/29 09:41:56;;;;;;;;;;;16.60;69.00;;;;;;5098141;28;19963;-47
2022/03/29 09:44:22;;;;;;;;;;;16.70;68.30;;;;;;5098008;28;19957;-50
2022/03/29 09:47:02;;;;;;;;;;;16.70;69.70;;;;;;5110506;28;19923;-49
2022/03/29 09:49:27;;;;;;;;;;;16.80;68.70;;;;;;5093515;28;20077;-49
2022/03/29 09:52:09;;;;;;;;;;;16.90;67.80;;;;;;5095397;28;19925;-43
2022/03/29 09:54:35;;;;;;;;;;;17.00;69.70;;;;;;5100011;28;19916;-48
2022/03/29 09:57:01;;;;;;;;;;;16.90;68.10;;;;;;5114117;28;19914;-47
2022/03/29 09:59:26;;;;;;;;;;;17.10;67.80;;;;;;5105409;28;19916;-45
2022/03/29 10:01:57;;;;;;;;;;;17.10;67.80;;;;;;5096799;28;19916;-48
2022/03/29 10:04:29;;;;;;;;;;;17.40;67.10;;;;;;5097782;28;19912;-46
2022/03/29 10:06:56;;;;;;;;;;;17.80;69.40;;;;;;5104597;28;19912;-45
2022/03/29 10:09:27;;;;;;;;;;;18.00;68.90;;;;;;5093845;28;19960;-47
2022/03/29 10:11:59;;;;;;;;;;;18.10;70.90;;;;;;5113691;28;19911;-48
2022/03/29 10:14:26;;;;;;;;;;;18.20;66.50;;;;;;5114433;28;19919;-47
2022/03/29 10:16:55;;;;;;;;;;;18.10;67.30;;;;;;5097719;28;19926;-47
2022/03/29 10:19:21;;;;;;;;;;;18.20;68.50;;;;;;5092224;28;19912;-53
2022/03/29 10:21:47;;;;;;;;;;;18.30;66.80;;;;;;5095751;28;19916;-49
2022/03/29 10:24:16;;;;;;;;;;;18.20;67.60;;;;;;5094391;28;19931;-48
2022/03/29 10:26:42;;;;;;;;;;;18.20;65.00;;;;;;5073435;28;19909;-48
2022/03/29 10:29:08;;;;;;;;;;;18.10;65.20;;;;;;5073906;28;19912;-46
2022/03/29 10:31:36;;;;;;;;;;;18.00;64.60;;;;;;5110714;28;19919;-46
2022/03/29 10:34:18;;;;;;;;;;;18.00;64.40;;;;;;5100844;28;19912;-46
2022/03/29 10:36:58;;;;;;;;;;;17.90;65.20;;;;;;5092637;28;19912;-48
2022/03/29 10:39:38;;;;;;;;;;;17.90;67.10;;;;;;5096965;28;19920;-48
2022/03/29 10:42:22;;;;;;;;;;;18.00;67.30;;;;;;5079355;28;19920;-52
2022/03/29 10:44:57;;;;;;;;;;;18.10;65.10;;;;;;5088626;28;20007;-50
2022/03/29 10:47:26;;;;;;;;;;;18.30;65.30;;;;;;5113591;28;19908;-46
2022/03/29 10:49:52;;;;;;;;;;;18.30;64.30;;;;;;5111625;28;19912;-50
2022/03/29 10:52:20;;;;;;;;;;;18.30;68.50;;;;;;5108532;28;20476;-48
2022/03/29 10:54:47;;;;;;;;;;;18.40;65.30;;;;;;5093045;28;19995;-50
2022/03/29 10:57:20;;;;;;;;;;;18.50;63.90;;;;;;5096120;28;20384;-49
2022/03/29 11:00:05;;;;;;;;;;;18.50;62.20;;;;;;5105049;28;20242;-46
2022/03/29 11:02:32;;;;;;;;;;;18.10;64.60;;;;;;5098313;28;19968;-43
2022/03/29 11:05:07;;;;;;;;;;;18.30;63.60;;;;;;5110176;28;19916;-48
2022/03/29 11:07:34;;;;;;;;;;;18.40;63.30;;;;;;5095296;28;19919;-45
2022/03/29 11:10:16;;;;;;;;;;;18.10;62.80;;;;;;5093066;28;20302;-49
2022/03/29 11:12:44;;;;;;;;;;;18.20;64.90;;;;;;5101870;28;19912;-42
2022/03/29 11:15:37;;;;;;;;;;;18.10;63.50;;;;;;5092347;28;19912;-43
2022/03/29 11:18:23;;;;;;;;;;;18.00;64.00;;;;;;5091144;28;20273;-47
2022/03/29 11:20:53;;;;;;;;;;;18.10;63.10;;;;;;5103512;28;19923;-47
2022/03/29 11:23:29;;;;;;;;;;;18.10;61.80;;;;;;5107804;28;19965;-46
2022/03/29 11:25:55;;;;;;;;;;;18.10;62.10;;;;;;5075837;28;20038;-48
2022/03/29 11:28:20;;;;;;;;;;;18.00;63.50;;;;;;5100136;28;19912;-45
2022/03/29 11:30:52;;;;;;;;;;;18.30;62.80;;;;;;5101260;28;19920;-46
2022/03/29 11:33:17;;;;;;;;;;;18.40;61.60;;;;;;5113069;28;19922;-46
2022/03/29 11:35:51;;;;;;;;;;;18.70;61.90;;;;;;5105427;28;19911;-49
2022/03/29 11:38:16;;;;;;;;;;;18.80;59.80;;;;;;5096996;28;19916;-48
2022/03/29 11:40:43;;;;;;;;;;;18.70;61.20;;;;;;5109381;28;19915;-48
2022/03/29 11:43:14;;;;;;;;;;;18.70;60.40;;;;;;5116626;28;20023;-46
2022/03/29 11:45:44;;;;;;;;;;;18.70;60.10;;;;;;5093470;28;19924;-49
2022/03/29 11:48:12;;;;;;;;;;;18.70;60.20;;;;;;5097546;28;19920;-49
2022/03/29 11:50:37;;;;;;;;;;;18.60;62.20;;;;;;5104672;28;19916;-45
2022/03/29 11:53:14;;;;;;;;;;;18.70;61.40;;;;;;5111942;28;19912;-46
2022/03/29 11:55:40;;;;;;;;;;;18.60;60.70;;;;;;5112689;28;19911;-49
2022/03/29 11:58:19;;;;;;;;;;;18.70;61.60;;;;;;5104314;28;19919;-53
2022/03/29 12:00:44;;;;;;;;;;;18.80;59.20;;;;;;5098857;28;19917;-46
2022/03/29 12:03:12;;;;;;;;;;;18.90;58.60;;;;;;5097955;28;20290;-49
2022/03/29 12:05:37;;;;;;;;;;;18.90;59.50;;;;;;5096442;28;19939;-48
2022/03/29 12:08:03;;;;;;;;;;;18.90;59.00;;;;;;5095712;28;19934;-51
2022/03/29 12:10:30;;;;;;;;;;;18.90;59.60;;;;;;5098635;28;19918;-46
2022/03/29 12:12:55;;;;;;;;;;;19.00;62.30;;;;;;5096239;28;19908;-47
2022/03/29 12:15:22;;;;;;;;;;;18.90;60.70;;;;;;5099470;28;19918;-50
2022/03/29 12:20:42;;;;;;;;;;;18.80;58.70;;;;;;5096017;28;20019;-47
2022/03/29 12:23:18;;;;;;;;;;;18.90;58.80;;;;;;5109286;28;20331;-51
2022/03/29 12:25:44;;;;;;;;;;;18.80;57.40;;;;;;5114574;28;19912;-47
2022/03/29 12:28:10;;;;;;;;;;;18.50;57.70;;;;;;5113221;28;20354;-45
2022/03/29 12:30:36;;;;;;;;;;;18.40;58.40;;;;;;5108813;28;19970;-48
2022/03/29 12:33:01;;;;;;;;;;;18.70;58.50;;;;;;5093017;28;20331;-47
2022/03/29 12:35:27;;;;;;;;;;;18.80;58.60;;;;;;5083289;28;19917;-49
2022/03/29 12:38:06;;;;;;;;;;;19.00;58.00;;;;;;5091333;28;19957;-50
2022/03/29 12:40:32;;;;;;;;;;;19.10;58.90;;;;;;5092906;28;19920;-48
2022/03/29 12:43:04;;;;;;;;;;;18.90;59.30;;;;;;5093426;28;19916;-48
2022/03/29 12:45:30;;;;;;;;;;;18.70;58.20;;;;;;5076720;28;19977;-49
2022/03/29 12:47:58;;;;;;;;;;;18.90;58.90;;;;;;5076201;28;20256;-46
2022/03/29 12:50:24;;;;;;;;;;;19.30;59.10;;;;;;5091438;28;19931;-54
2022/03/29 12:52:50;;;;;;;;;;;19.60;59.30;;;;;;5095149;28;19908;-52
2022/03/29 12:55:18;;;;;;;;;;;19.40;58.40;;;;;;5095090;28;19915;-49
2022/03/29 12:57:45;;;;;;;;;;;19.10;57.00;;;;;;5095382;28;20224;-48
2022/03/29 13:00:14;;;;;;;;;;;19.00;56.40;;;;;;5095878;28;19916;-49
2022/03/29 13:02:43;;;;;;;;;;;19.00;57.70;;;;;;5113461;28;19912;-49
2022/03/29 13:05:09;;;;;;;;;;;19.20;57.80;;;;;;5114398;28;19987;-51
2022/03/29 13:07:45;;;;;;;;;;;19.10;56.70;;;;;;5113005;28;19912;-49
2022/03/29 13:10:13;;;;;;;;;;;18.60;58.00;;;;;;5096123;28;20287;-49
2022/03/29 13:12:49;;;;;;;;;;;18.70;58.90;;;;;;5114515;28;20005;-52
2022/03/29 13:15:34;;;;;;;;;;;18.70;58.00;;;;;;5107916;28;19947;-47
2022/03/29 13:18:00;;;;;;;;;;;18.70;58.40;;;;;;5113208;28;20274;-50
2022/03/29 13:20:25;;;;;;;;;;;18.90;60.20;;;;;;5098024;28;19926;-51
2022/03/29 13:22:51;;;;;;;;;;;18.90;57.90;;;;;;5113572;28;19908;-48
2022/03/29 13:25:21;;;;;;;;;;;18.70;60.10;;;;;;5115215;28;20267;-49
2022/03/29 13:27:47;;;;;;;;;;;18.80;58.20;;;;;;5113823;28;19916;-52
2022/03/29 13:30:12;;;;;;;;;;;18.90;58.20;;;;;;5115083;28;19920;-50
2022/03/29 13:32:38;;;;;;;;;;;18.80;58.50;;;;;;5097840;28;19912;-49
2022/03/29 13:35:06;;;;;;;;;;;18.60;59.20;;;;;;5098108;28;19919;-48
2022/03/29 13:37:31;;;;;;;;;;;18.50;57.40;;;;;;5100843;28;20247;-48
2022/03/29 13:39:57;;;;;;;;;;;18.60;57.40;;;;;;5094112;28;19927;-49
2022/03/29 13:42:22;;;;;;;;;;;18.30;57.20;;;;;;5103328;28;19931;-53
2022/03/29 13:44:48;;;;;;;;;;;18.30;57.30;;;;;;5093773;28;19908;-46
2022/03/29 13:47:13;;;;;;;;;;;18.50;57.30;;;;;;5093636;28;19954;-49
2022/03/29 13:49:39;;;;;;;;;;;18.40;56.50;;;;;;5094119;28;19915;-48
2022/03/29 13:52:05;;;;;;;;;;;18.50;57.80;;;;;;5094087;28;19908;-49
2022/03/29 13:54:30;;;;;;;;;;;18.70;57.10;;;;;;5093030;28;20335;-47
2022/03/29 13:56:56;;;;;;;;;;;18.40;56.30;;;;;;5093830;28;19943;-47
2022/03/29 13:59:25;;;;;;;;;;;18.10;55.60;;;;;;5093875;28;19919;-52
2022/03/29 14:01:51;;;;;;;;;;;17.60;56.10;;;;;;5092990;28;19970;-46
2022/03/29 14:04:16;;;;;;;;;;;17.30;56.20;;;;;;5093813;28;20269;-46
2022/03/29 14:06:42;;;;;;;;;;;17.30;56.50;;;;;;5093507;28;19913;-47
2022/03/29 14:09:07;;;;;;;;;;;17.20;56.50;;;;;;5093712;28;20357;-46
2022/03/29 14:11:33;;;;;;;;;;;17.50;56.70;;;;;;5093602;28;19920;-55
2022/03/29 14:13:58;;;;;;;;;;;17.80;57.30;;;;;;5093137;28;19913;-50
2022/03/29 14:16:24;;;;;;;;;;;17.80;56.40;;;;;;5092907;28;19920;-49
2022/03/29 14:18:52;;;;;;;;;;;17.90;57.60;;;;;;5092773;28;19993;-51
2022/03/29 14:21:18;;;;;;;;;;;18.20;56.00;;;;;;5093478;28;19978;-54
2022/03/29 14:23:44;;;;;;;;;;;18.20;55.80;;;;;;5092659;28;19924;-46
2022/03/29 14:26:10;;;;;;;;;;;17.80;56.00;;;;;;5091945;28;19912;-49
2022/03/29 14:28:36;;;;;;;;;;;17.90;58.50;;;;;;5092508;28;20307;-51
2022/03/29 14:31:01;;;;;;;;;;;18.00;56.60;;;;;;5092386;28;19973;-50
2022/03/29 14:33:29;;;;;;;;;;;18.10;55.90;;;;;;5087698;28;19970;-50